sensor_id;sensor_type;location;lat;lon;timestamp;temperature;humidity
6052;DHT22;3054;51.204;4.430;2022-08-16T00:00:16;25.19;61.25
6052;DHT22;3054;51.204;4.430;2022-08-16T00:02:43;25.07;61.44
6052;DHT22;3054;51.204;4.430;2022-08-16T00:05:12;25.03;61.63
6052;DHT22;3054;51.204;4.430;2022-08-16T00:07:39;25.05;61.62
6052;DHT22;3054;51.204;4.430;2022-08-16T00:10:08;25.08;61.56
6052;DHT22;3054;51.204;4.430;2022-08-16T00:12:39;25.10;61.47
6052;DHT22;3054;51.204;4.430;2022-08-16T00:15:12;25.08;61.57
6052;DHT22;3054;51.204;4.430;2022-08-16T00:17:40;25.05;61.57
6052;DHT22;3054;51.204;4.430;2022-08-16T00:20:08;24.98;61.76
6052;DHT22;3054;51.204;4.430;2022-08-16T00:22:36;24.94;61.90
6052;DHT22;3054;51.204;4.430;2022-08-16T00:25:06;24.90;62.01
6052;DHT22;3054;51.204;4.430;2022-08-16T00:27:33;24.93;62.03
6052;DHT22;3054;51.204;4.430;2022-08-16T00:30:03;24.94;62.08
6052;DHT22;3054;51.204;4.430;2022-08-16T00:32:30;24.97;62.14
6052;DHT22;3054;51.204;4.430;2022-08-16T00:34:57;24.93;62.23
6052;DHT22;3054;51.204;4.430;2022-08-16T00:37:25;24.94;62.34
6052;DHT22;3054;51.204;4.430;2022-08-16T00:39:52;24.93;62.41
6052;DHT22;3054;51.204;4.430;2022-08-16T00:42:19;24.94;62.42
6052;DHT22;3054;51.204;4.430;2022-08-16T00:44:52;24.94;62.49
6052;DHT22;3054;51.204;4.430;2022-08-16T00:47:23;24.91;62.58
6052;DHT22;3054;51.204;4.430;2022-08-16T00:49:51;24.88;62.70
6052;DHT22;3054;51.204;4.430;2022-08-16T00:52:18;24.91;62.70
6052;DHT22;3054;51.204;4.430;2022-08-16T00:54:45;24.95;62.70
6052;DHT22;3054;51.204;4.430;2022-08-16T00:57:12;24.97;62.66
6052;DHT22;3054;51.204;4.430;2022-08-16T00:59:39;24.99;62.65
6052;DHT22;3054;51.204;4.430;2022-08-16T01:02:08;25.01;62.57
6052;DHT22;3054;51.204;4.430;2022-08-16T01:04:37;24.95;62.69
6052;DHT22;3054;51.204;4.430;2022-08-16T01:07:05;24.95;62.67
6052;DHT22;3054;51.204;4.430;2022-08-16T01:09:35;24.95;62.71
6052;DHT22;3054;51.204;4.430;2022-08-16T01:12:06;24.93;62.73
6052;DHT22;3054;51.204;4.430;2022-08-16T01:14:40;24.90;62.84
6052;DHT22;3054;51.204;4.430;2022-08-16T01:17:08;24.87;62.83
6052;DHT22;3054;51.204;4.430;2022-08-16T01:19:40;24.85;62.93
6052;DHT22;3054;51.204;4.430;2022-08-16T01:22:13;24.76;63.08
6052;DHT22;3054;51.204;4.430;2022-08-16T01:24:46;24.66;63.32
6052;DHT22;3054;51.204;4.430;2022-08-16T01:27:19;24.60;63.51
6052;DHT22;3054;51.204;4.430;2022-08-16T01:29:50;24.55;63.66
6052;DHT22;3054;51.204;4.430;2022-08-16T01:32:20;24.50;63.78
6052;DHT22;3054;51.204;4.430;2022-08-16T01:34:47;24.50;63.80
6052;DHT22;3054;51.204;4.430;2022-08-16T01:37:14;24.49;63.86
6052;DHT22;3054;51.204;4.430;2022-08-16T01:39:43;24.53;63.82
6052;DHT22;3054;51.204;4.430;2022-08-16T01:42:10;24.51;63.82
6052;DHT22;3054;51.204;4.430;2022-08-16T01:44:38;24.45;63.92
6052;DHT22;3054;51.204;4.430;2022-08-16T01:47:05;24.46;63.94
6052;DHT22;3054;51.204;4.430;2022-08-16T01:49:35;24.44;63.95
6052;DHT22;3054;51.204;4.430;2022-08-16T01:52:10;24.36;64.14
6052;DHT22;3054;51.204;4.430;2022-08-16T01:54:37;24.31;64.26
6052;DHT22;3054;51.204;4.430;2022-08-16T01:57:07;24.32;64.30
6052;DHT22;3054;51.204;4.430;2022-08-16T01:59:35;24.31;64.28
6052;DHT22;3054;51.204;4.430;2022-08-16T02:02:04;24.26;64.41
6052;DHT22;3054;51.204;4.430;2022-08-16T02:04:32;24.18;64.63
6052;DHT22;3054;51.204;4.430;2022-08-16T02:07:00;24.14;64.70
6052;DHT22;3054;51.204;4.430;2022-08-16T02:09:28;24.13;64.78
6052;DHT22;3054;51.204;4.430;2022-08-16T02:11:58;24.15;64.76
6052;DHT22;3054;51.204;4.430;2022-08-16T02:14:28;24.15;64.82
6052;DHT22;3054;51.204;4.430;2022-08-16T02:16:57;24.19;64.71
6052;DHT22;3054;51.204;4.430;2022-08-16T02:19:25;24.23;64.65
6052;DHT22;3054;51.204;4.430;2022-08-16T02:21:54;24.17;64.72
6052;DHT22;3054;51.204;4.430;2022-08-16T02:24:22;24.09;64.90
6052;DHT22;3054;51.204;4.430;2022-08-16T02:26:49;23.99;65.11
6052;DHT22;3054;51.204;4.430;2022-08-16T02:29:17;23.95;65.25
6052;DHT22;3054;51.204;4.430;2022-08-16T02:31:46;23.89;65.33
6052;DHT22;3054;51.204;4.430;2022-08-16T02:34:13;23.82;65.49
6052;DHT22;3054;51.204;4.430;2022-08-16T02:36:41;23.75;65.66
6052;DHT22;3054;51.204;4.430;2022-08-16T02:39:09;23.72;65.79
6052;DHT22;3054;51.204;4.430;2022-08-16T02:41:38;23.70;65.88
6052;DHT22;3054;51.204;4.430;2022-08-16T02:44:07;23.67;66.02
6052;DHT22;3054;51.204;4.430;2022-08-16T02:46:35;23.69;65.98
6052;DHT22;3054;51.204;4.430;2022-08-16T02:49:05;23.67;66.02
6052;DHT22;3054;51.204;4.430;2022-08-16T02:51:32;23.64;66.17
6052;DHT22;3054;51.204;4.430;2022-08-16T02:53:59;23.61;66.19
6052;DHT22;3054;51.204;4.430;2022-08-16T02:56:26;23.60;66.32
6052;DHT22;3054;51.204;4.430;2022-08-16T02:58:54;23.60;66.35
6052;DHT22;3054;51.204;4.430;2022-08-16T03:01:23;23.61;66.36
6052;DHT22;3054;51.204;4.430;2022-08-16T03:03:51;23.68;66.28
6052;DHT22;3054;51.204;4.430;2022-08-16T03:06:20;23.68;66.19
6052;DHT22;3054;51.204;4.430;2022-08-16T03:08:49;23.66;66.14
6052;DHT22;3054;51.204;4.430;2022-08-16T03:11:17;23.66;66.10
6052;DHT22;3054;51.204;4.430;2022-08-16T03:13:45;23.65;66.07
6052;DHT22;3054;51.204;4.430;2022-08-16T03:16:12;23.61;66.12
6052;DHT22;3054;51.204;4.430;2022-08-16T03:18:39;23.62;66.07
6052;DHT22;3054;51.204;4.430;2022-08-16T03:21:06;23.57;66.17
6052;DHT22;3054;51.204;4.430;2022-08-16T03:23:35;23.54;66.24
6052;DHT22;3054;51.204;4.430;2022-08-16T03:26:01;23.51;66.23
6052;DHT22;3054;51.204;4.430;2022-08-16T03:28:28;23.45;66.31
6052;DHT22;3054;51.204;4.430;2022-08-16T03:30:55;23.46;66.33
6052;DHT22;3054;51.204;4.430;2022-08-16T03:33:23;23.45;66.30
6052;DHT22;3054;51.204;4.430;2022-08-16T03:35:50;23.50;66.20
6052;DHT22;3054;51.204;4.430;2022-08-16T03:38:17;23.52;66.13
6052;DHT22;3054;51.204;4.430;2022-08-16T03:40:45;23.47;66.10
6052;DHT22;3054;51.204;4.430;2022-08-16T03:43:12;23.43;66.11
6052;DHT22;3054;51.204;4.430;2022-08-16T03:45:39;23.37;66.26
6052;DHT22;3054;51.204;4.430;2022-08-16T03:48:07;23.32;66.31
6052;DHT22;3054;51.204;4.430;2022-08-16T03:50:34;23.29;66.31
6052;DHT22;3054;51.204;4.430;2022-08-16T03:53:01;23.32;66.25
6052;DHT22;3054;51.204;4.430;2022-08-16T03:55:28;23.32;66.17
6052;DHT22;3054;51.204;4.430;2022-08-16T03:57:56;23.35;66.08
6052;DHT22;3054;51.204;4.430;2022-08-16T04:00:26;23.38;65.98
6052;DHT22;3054;51.204;4.430;2022-08-16T04:02:55;23.44;65.84
6052;DHT22;3054;51.204;4.430;2022-08-16T04:05:23;23.41;65.70
6052;DHT22;3054;51.204;4.430;2022-08-16T04:07:50;23.43;65.68
6052;DHT22;3054;51.204;4.430;2022-08-16T04:10:17;23.44;65.60
6052;DHT22;3054;51.204;4.430;2022-08-16T04:12:45;23.44;65.50
6052;DHT22;3054;51.204;4.430;2022-08-16T04:15:15;23.39;65.52
6052;DHT22;3054;51.204;4.430;2022-08-16T04:17:43;23.42;65.46
6052;DHT22;3054;51.204;4.430;2022-08-16T04:20:11;23.43;65.35
6052;DHT22;3054;51.204;4.430;2022-08-16T04:22:40;23.39;65.25
6052;DHT22;3054;51.204;4.430;2022-08-16T04:25:09;23.34;65.32
6052;DHT22;3054;51.204;4.430;2022-08-16T04:27:36;23.31;65.32
6052;DHT22;3054;51.204;4.430;2022-08-16T04:30:06;23.28;65.33
6052;DHT22;3054;51.204;4.430;2022-08-16T04:32:36;23.26;65.30
6052;DHT22;3054;51.204;4.430;2022-08-16T04:35:04;23.25;65.30
6052;DHT22;3054;51.204;4.430;2022-08-16T04:37:31;23.25;65.30
6052;DHT22;3054;51.204;4.430;2022-08-16T04:39:57;23.28;65.22
6052;DHT22;3054;51.204;4.430;2022-08-16T04:42:24;23.30;65.16
6052;DHT22;3054;51.204;4.430;2022-08-16T04:44:54;23.34;65.04
6052;DHT22;3054;51.204;4.430;2022-08-16T04:47:24;23.34;65.02
6052;DHT22;3054;51.204;4.430;2022-08-16T04:49:54;23.29;65.01
6052;DHT22;3054;51.204;4.430;2022-08-16T04:52:22;23.32;64.96
6052;DHT22;3054;51.204;4.430;2022-08-16T04:54:49;23.32;64.85
6052;DHT22;3054;51.204;4.430;2022-08-16T04:57:16;23.26;64.87
6052;DHT22;3054;51.204;4.430;2022-08-16T04:59:43;23.23;64.96
6052;DHT22;3054;51.204;4.430;2022-08-16T05:02:12;23.24;64.94
6052;DHT22;3054;51.204;4.430;2022-08-16T05:04:39;23.29;64.84
6052;DHT22;3054;51.204;4.430;2022-08-16T05:07:07;23.30;64.76
6052;DHT22;3054;51.204;4.430;2022-08-16T05:09:34;23.25;64.77
6052;DHT22;3054;51.204;4.430;2022-08-16T05:12:05;23.26;64.82
6052;DHT22;3054;51.204;4.430;2022-08-16T05:14:32;23.30;64.71
6052;DHT22;3054;51.204;4.430;2022-08-16T05:16:59;23.29;64.67
6052;DHT22;3054;51.204;4.430;2022-08-16T05:19:26;23.30;64.62
6052;DHT22;3054;51.204;4.430;2022-08-16T05:21:53;23.37;64.50
6052;DHT22;3054;51.204;4.430;2022-08-16T05:24:21;23.36;64.46
6052;DHT22;3054;51.204;4.430;2022-08-16T05:26:48;23.34;64.54
6052;DHT22;3054;51.204;4.430;2022-08-16T05:29:15;23.39;64.49
6052;DHT22;3054;51.204;4.430;2022-08-16T05:31:42;23.40;64.37
6052;DHT22;3054;51.204;4.430;2022-08-16T05:34:09;23.42;64.31
6052;DHT22;3054;51.204;4.430;2022-08-16T05:36:36;23.39;64.34
6052;DHT22;3054;51.204;4.430;2022-08-16T05:39:05;23.46;64.30
6052;DHT22;3054;51.204;4.430;2022-08-16T05:41:33;23.55;64.08
6052;DHT22;3054;51.204;4.430;2022-08-16T05:44:00;23.58;63.98
6052;DHT22;3054;51.204;4.430;2022-08-16T05:46:27;23.59;63.92
6052;DHT22;3054;51.204;4.430;2022-08-16T05:48:54;23.65;63.88
6052;DHT22;3054;51.204;4.430;2022-08-16T05:51:20;23.61;63.92
6052;DHT22;3054;51.204;4.430;2022-08-16T05:53:48;23.58;63.95
6052;DHT22;3054;51.204;4.430;2022-08-16T05:56:16;23.52;64.01
6052;DHT22;3054;51.204;4.430;2022-08-16T05:58:45;23.53;64.05
6052;DHT22;3054;51.204;4.430;2022-08-16T06:01:12;23.56;63.95
6052;DHT22;3054;51.204;4.430;2022-08-16T06:03:39;23.56;63.86
6052;DHT22;3054;51.204;4.430;2022-08-16T06:06:06;23.56;63.76
6052;DHT22;3054;51.204;4.430;2022-08-16T06:08:33;23.79;63.33
6052;DHT22;3054;51.204;4.430;2022-08-16T06:11:00;23.89;63.04
6052;DHT22;3054;51.204;4.430;2022-08-16T06:13:27;24.00;62.73
6052;DHT22;3054;51.204;4.430;2022-08-16T06:15:55;24.08;62.60
6052;DHT22;3054;51.204;4.430;2022-08-16T06:18:22;24.23;62.14
6052;DHT22;3054;51.204;4.430;2022-08-16T06:20:49;24.29;61.99
6052;DHT22;3054;51.204;4.430;2022-08-16T06:23:16;24.43;61.70
6052;DHT22;3054;51.204;4.430;2022-08-16T06:25:43;24.59;61.25
6052;DHT22;3054;51.204;4.430;2022-08-16T06:28:10;24.76;60.83
6052;DHT22;3054;51.204;4.430;2022-08-16T06:30:38;24.91;60.47
6052;DHT22;3054;51.204;4.430;2022-08-16T06:33:06;25.08;60.06
6052;DHT22;3054;51.204;4.430;2022-08-16T06:35:34;25.28;59.63
6052;DHT22;3054;51.204;4.430;2022-08-16T06:38:02;25.44;59.13
6052;DHT22;3054;51.204;4.430;2022-08-16T06:40:29;25.47;58.83
6052;DHT22;3054;51.204;4.430;2022-08-16T06:42:55;25.57;58.51
6052;DHT22;3054;51.204;4.430;2022-08-16T06:45:23;25.58;58.36
6052;DHT22;3054;51.204;4.430;2022-08-16T06:47:50;25.78;57.94
6052;DHT22;3054;51.204;4.430;2022-08-16T06:50:18;25.90;57.58
6052;DHT22;3054;51.204;4.430;2022-08-16T06:52:45;25.97;57.23
6052;DHT22;3054;51.204;4.430;2022-08-16T06:55:14;26.03;57.01
6052;DHT22;3054;51.204;4.430;2022-08-16T06:57:42;25.97;56.95
6052;DHT22;3054;51.204;4.430;2022-08-16T07:00:12;25.88;56.89
6052;DHT22;3054;51.204;4.430;2022-08-16T07:02:39;25.94;56.80
6052;DHT22;3054;51.204;4.430;2022-08-16T07:05:07;26.06;56.45
6052;DHT22;3054;51.204;4.430;2022-08-16T07:07:36;26.22;55.95
6052;DHT22;3054;51.204;4.430;2022-08-16T07:10:05;26.43;55.52
6052;DHT22;3054;51.204;4.430;2022-08-16T07:12:33;26.49;55.26
6052;DHT22;3054;51.204;4.430;2022-08-16T07:14:59;26.65;54.87
6052;DHT22;3054;51.204;4.430;2022-08-16T07:17:28;26.77;54.50
6052;DHT22;3054;51.204;4.430;2022-08-16T07:19:56;26.85;54.26
6052;DHT22;3054;51.204;4.430;2022-08-16T07:22:23;27.00;53.88
6052;DHT22;3054;51.204;4.430;2022-08-16T07:24:52;27.06;53.49
6052;DHT22;3054;51.204;4.430;2022-08-16T07:27:19;26.99;53.31
6052;DHT22;3054;51.204;4.430;2022-08-16T07:29:46;27.06;53.28
6052;DHT22;3054;51.204;4.430;2022-08-16T07:32:13;27.29;52.86
6052;DHT22;3054;51.204;4.430;2022-08-16T07:34:41;27.47;52.46
6052;DHT22;3054;51.204;4.430;2022-08-16T07:37:09;27.57;52.15
6052;DHT22;3054;51.204;4.430;2022-08-16T07:39:37;27.64;51.83
6052;DHT22;3054;51.204;4.430;2022-08-16T07:42:06;27.74;51.55
6052;DHT22;3054;51.204;4.430;2022-08-16T07:44:33;27.72;51.21
6052;DHT22;3054;51.204;4.430;2022-08-16T07:46:59;27.57;51.35
6052;DHT22;3054;51.204;4.430;2022-08-16T07:49:26;27.42;51.48
6052;DHT22;3054;51.204;4.430;2022-08-16T07:51:53;27.37;51.72
6052;DHT22;3054;51.204;4.430;2022-08-16T07:54:20;27.40;51.58
6052;DHT22;3054;51.204;4.430;2022-08-16T07:56:47;27.57;51.24
6052;DHT22;3054;51.204;4.430;2022-08-16T07:59:16;27.89;50.60
6052;DHT22;3054;51.204;4.430;2022-08-16T08:01:43;28.16;50.05
6052;DHT22;3054;51.204;4.430;2022-08-16T08:04:09;28.35;49.60
6052;DHT22;3054;51.204;4.430;2022-08-16T08:06:39;28.50;49.31
6052;DHT22;3054;51.204;4.430;2022-08-16T08:09:06;28.71;48.97
6052;DHT22;3054;51.204;4.430;2022-08-16T08:11:33;28.90;48.40
6052;DHT22;3054;51.204;4.430;2022-08-16T08:14:00;28.99;48.03
6052;DHT22;3054;51.204;4.430;2022-08-16T08:16:29;29.12;47.61
6052;DHT22;3054;51.204;4.430;2022-08-16T08:18:56;29.36;47.03
6052;DHT22;3054;51.204;4.430;2022-08-16T08:21:24;29.60;46.46
6052;DHT22;3054;51.204;4.430;2022-08-16T08:23:54;29.81;46.02
6052;DHT22;3054;51.204;4.430;2022-08-16T08:26:22;29.85;45.66
6052;DHT22;3054;51.204;4.430;2022-08-16T08:28:52;29.73;45.42
6052;DHT22;3054;51.204;4.430;2022-08-16T08:31:19;29.59;45.59
6052;DHT22;3054;51.204;4.430;2022-08-16T08:33:47;29.86;45.32
6052;DHT22;3054;51.204;4.430;2022-08-16T08:36:22;30.12;44.67
6052;DHT22;3054;51.204;4.430;2022-08-16T08:38:50;30.41;44.23
6052;DHT22;3054;51.204;4.430;2022-08-16T08:41:18;30.77;43.64
6052;DHT22;3054;51.204;4.430;2022-08-16T08:43:45;31.16;43.06
6052;DHT22;3054;51.204;4.430;2022-08-16T08:46:12;31.66;42.26
6052;DHT22;3054;51.204;4.430;2022-08-16T08:48:39;31.98;41.62
6052;DHT22;3054;51.204;4.430;2022-08-16T08:51:08;31.70;41.81
6052;DHT22;3054;51.204;4.430;2022-08-16T08:53:36;31.38;42.29
6052;DHT22;3054;51.204;4.430;2022-08-16T08:56:03;31.10;42.61
6052;DHT22;3054;51.204;4.430;2022-08-16T08:58:31;31.15;42.57
6052;DHT22;3054;51.204;4.430;2022-08-16T09:00:58;31.20;42.13
6052;DHT22;3054;51.204;4.430;2022-08-16T09:03:25;31.73;41.44
6052;DHT22;3054;51.204;4.430;2022-08-16T09:05:55;33.06;39.60
6052;DHT22;3054;51.204;4.430;2022-08-16T09:08:23;34.05;37.90
6052;DHT22;3054;51.204;4.430;2022-08-16T09:10:52;33.96;37.64
6052;DHT22;3054;51.204;4.430;2022-08-16T09:13:20;34.06;37.52
6052;DHT22;3054;51.204;4.430;2022-08-16T09:15:47;34.89;36.56
6052;DHT22;3054;51.204;4.430;2022-08-16T09:18:15;35.88;35.21
6052;DHT22;3054;51.204;4.430;2022-08-16T09:20:42;37.10;33.28
6052;DHT22;3054;51.204;4.430;2022-08-16T09:23:10;37.67;32.46
6052;DHT22;3054;51.204;4.430;2022-08-16T09:25:38;37.61;32.19
6052;DHT22;3054;51.204;4.430;2022-08-16T09:28:05;37.97;32.15
6052;DHT22;3054;51.204;4.430;2022-08-16T09:30:32;38.40;31.24
6052;DHT22;3054;51.204;4.430;2022-08-16T09:32:59;38.79;30.80
6052;DHT22;3054;51.204;4.430;2022-08-16T09:35:26;38.85;30.53
6052;DHT22;3054;51.204;4.430;2022-08-16T09:37:54;39.13;30.63
6052;DHT22;3054;51.204;4.430;2022-08-16T09:40:22;39.95;28.90
6052;DHT22;3054;51.204;4.430;2022-08-16T09:42:50;41.75;27.89
6052;DHT22;3054;51.204;4.430;2022-08-16T09:45:20;42.61;26.68
6052;DHT22;3054;51.204;4.430;2022-08-16T09:47:47;42.44;25.86
6052;DHT22;3054;51.204;4.430;2022-08-16T09:50:18;42.26;25.91
6052;DHT22;3054;51.204;4.430;2022-08-16T09:52:45;43.54;24.74
6052;DHT22;3054;51.204;4.430;2022-08-16T09:55:12;44.98;23.11
6052;DHT22;3054;51.204;4.430;2022-08-16T09:57:40;45.95;21.99
6052;DHT22;3054;51.204;4.430;2022-08-16T10:00:10;46.45;21.24
6052;DHT22;3054;51.204;4.430;2022-08-16T10:02:37;46.12;20.96
6052;DHT22;3054;51.204;4.430;2022-08-16T10:05:07;46.86;20.82
6052;DHT22;3054;51.204;4.430;2022-08-16T10:07:35;48.59;19.67
6052;DHT22;3054;51.204;4.430;2022-08-16T10:10:03;49.99;18.38
6052;DHT22;3054;51.204;4.430;2022-08-16T10:12:30;51.18;17.48
6052;DHT22;3054;51.204;4.430;2022-08-16T10:15:18;52.37;16.77
6052;DHT22;3054;51.204;4.430;2022-08-16T10:17:49;53.31;15.97
6052;DHT22;3054;51.204;4.430;2022-08-16T10:20:17;54.53;15.22
6052;DHT22;3054;51.204;4.430;2022-08-16T10:22:44;54.89;14.50
6052;DHT22;3054;51.204;4.430;2022-08-16T10:25:11;53.92;14.54
6052;DHT22;3054;51.204;4.430;2022-08-16T10:27:39;52.68;14.77
6052;DHT22;3054;51.204;4.430;2022-08-16T10:30:07;52.66;15.01
6052;DHT22;3054;51.204;4.430;2022-08-16T10:32:35;52.72;14.93
6052;DHT22;3054;51.204;4.430;2022-08-16T10:35:02;52.73;14.74
6052;DHT22;3054;51.204;4.430;2022-08-16T10:37:29;50.80;15.29
6052;DHT22;3054;51.204;4.430;2022-08-16T10:39:56;49.32;15.66
6052;DHT22;3054;51.204;4.430;2022-08-16T10:42:25;48.35;16.00
6052;DHT22;3054;51.204;4.430;2022-08-16T10:44:52;46.74;16.99
6052;DHT22;3054;51.204;4.430;2022-08-16T10:47:19;46.10;17.32
6052;DHT22;3054;51.204;4.430;2022-08-16T10:49:48;44.94;17.86
6052;DHT22;3054;51.204;4.430;2022-08-16T10:52:15;43.71;18.70
6052;DHT22;3054;51.204;4.430;2022-08-16T10:54:41;42.88;19.38
6052;DHT22;3054;51.204;4.430;2022-08-16T10:57:08;41.70;20.34
6052;DHT22;3054;51.204;4.430;2022-08-16T10:59:35;40.96;21.11
6052;DHT22;3054;51.204;4.430;2022-08-16T11:02:02;40.31;21.37
6052;DHT22;3054;51.204;4.430;2022-08-16T11:04:29;39.43;21.93
6052;DHT22;3054;51.204;4.430;2022-08-16T11:06:57;38.69;22.63
6052;DHT22;3054;51.204;4.430;2022-08-16T11:09:24;38.01;23.28
6052;DHT22;3054;51.204;4.430;2022-08-16T11:11:51;37.63;23.86
6052;DHT22;3054;51.204;4.430;2022-08-16T11:14:21;37.44;24.28
6052;DHT22;3054;51.204;4.430;2022-08-16T11:16:48;37.37;24.56
6052;DHT22;3054;51.204;4.430;2022-08-16T11:19:15;37.46;24.54
6052;DHT22;3054;51.204;4.430;2022-08-16T11:21:43;37.47;24.61
6052;DHT22;3054;51.204;4.430;2022-08-16T11:24:11;38.02;24.25
6052;DHT22;3054;51.204;4.430;2022-08-16T11:26:39;38.55;23.59
6052;DHT22;3054;51.204;4.430;2022-08-16T11:29:06;38.75;23.43
6052;DHT22;3054;51.204;4.430;2022-08-16T11:31:34;38.02;24.12
6052;DHT22;3054;51.204;4.430;2022-08-16T11:34:01;37.72;24.37
6052;DHT22;3054;51.204;4.430;2022-08-16T11:36:28;37.69;24.68
6052;DHT22;3054;51.204;4.430;2022-08-16T11:38:56;37.43;24.78
6052;DHT22;3054;51.204;4.430;2022-08-16T11:41:25;37.20;25.23
6052;DHT22;3054;51.204;4.430;2022-08-16T11:43:52;36.99;25.58
6052;DHT22;3054;51.204;4.430;2022-08-16T11:46:19;36.52;26.11
6052;DHT22;3054;51.204;4.430;2022-08-16T11:48:46;36.24;26.56
6052;DHT22;3054;51.204;4.430;2022-08-16T11:51:15;36.23;26.81
6052;DHT22;3054;51.204;4.430;2022-08-16T11:53:42;36.36;26.87
6052;DHT22;3054;51.204;4.430;2022-08-16T11:56:09;36.76;26.67
6052;DHT22;3054;51.204;4.430;2022-08-16T11:58:37;38.62;24.93
6052;DHT22;3054;51.204;4.430;2022-08-16T12:01:05;40.27;23.03
6052;DHT22;3054;51.204;4.430;2022-08-16T12:03:33;40.28;22.63
6052;DHT22;3054;51.204;4.430;2022-08-16T12:06:06;39.26;23.53
6052;DHT22;3054;51.204;4.430;2022-08-16T12:08:34;38.47;24.33
6052;DHT22;3054;51.204;4.430;2022-08-16T12:11:02;38.07;24.60
6052;DHT22;3054;51.204;4.430;2022-08-16T12:13:30;37.64;24.99
6052;DHT22;3054;51.204;4.430;2022-08-16T12:15:58;37.08;25.59
6052;DHT22;3054;51.204;4.430;2022-08-16T12:18:25;36.40;26.30
6052;DHT22;3054;51.204;4.430;2022-08-16T12:20:52;36.11;26.64
6052;DHT22;3054;51.204;4.430;2022-08-16T12:23:21;35.80;27.00
6052;DHT22;3054;51.204;4.430;2022-08-16T12:25:49;35.56;27.17
6052;DHT22;3054;51.204;4.430;2022-08-16T12:28:17;35.34;27.58
6052;DHT22;3054;51.204;4.430;2022-08-16T12:30:45;35.38;27.68
6052;DHT22;3054;51.204;4.430;2022-08-16T12:33:15;35.09;28.01
6052;DHT22;3054;51.204;4.430;2022-08-16T12:35:44;34.99;28.21
6052;DHT22;3054;51.204;4.430;2022-08-16T12:38:11;34.71;28.56
6052;DHT22;3054;51.204;4.430;2022-08-16T12:40:46;34.61;28.81
6052;DHT22;3054;51.204;4.430;2022-08-16T12:43:15;34.66;28.94
6052;DHT22;3054;51.204;4.430;2022-08-16T12:45:46;34.75;28.90
6052;DHT22;3054;51.204;4.430;2022-08-16T12:48:17;34.54;28.81
6052;DHT22;3054;51.204;4.430;2022-08-16T12:51:04;34.37;28.89
6052;DHT22;3054;51.204;4.430;2022-08-16T12:53:32;34.30;29.00
6052;DHT22;3054;51.204;4.430;2022-08-16T12:56:01;34.29;29.08
6052;DHT22;3054;51.204;4.430;2022-08-16T12:58:28;34.25;29.16
6052;DHT22;3054;51.204;4.430;2022-08-16T13:00:56;34.38;29.18
6052;DHT22;3054;51.204;4.430;2022-08-16T13:03:24;34.60;29.02
6052;DHT22;3054;51.204;4.430;2022-08-16T13:05:52;34.66;28.88
6052;DHT22;3054;51.204;4.430;2022-08-16T13:08:19;34.61;29.10
6052;DHT22;3054;51.204;4.430;2022-08-16T13:10:47;34.52;29.24
6052;DHT22;3054;51.204;4.430;2022-08-16T13:13:15;34.32;29.57
6052;DHT22;3054;51.204;4.430;2022-08-16T13:15:49;34.33;29.68
6052;DHT22;3054;51.204;4.430;2022-08-16T13:18:16;34.19;29.78
6052;DHT22;3054;51.204;4.430;2022-08-16T13:20:44;34.02;29.89
6052;DHT22;3054;51.204;4.430;2022-08-16T13:23:12;33.79;30.07
6052;DHT22;3054;51.204;4.430;2022-08-16T13:25:41;33.63;30.23
6052;DHT22;3054;51.204;4.430;2022-08-16T13:28:09;33.45;30.46
6052;DHT22;3054;51.204;4.430;2022-08-16T13:30:39;33.34;30.64
6052;DHT22;3054;51.204;4.430;2022-08-16T13:33:07;33.34;30.71
6052;DHT22;3054;51.204;4.430;2022-08-16T13:35:34;33.40;30.83
6052;DHT22;3054;51.204;4.430;2022-08-16T13:38:03;33.44;30.77
6052;DHT22;3054;51.204;4.430;2022-08-16T13:40:29;33.45;30.67
6052;DHT22;3054;51.204;4.430;2022-08-16T13:42:57;33.59;30.38
6052;DHT22;3054;51.204;4.430;2022-08-16T13:45:24;33.66;30.17
6052;DHT22;3054;51.204;4.430;2022-08-16T13:47:52;33.74;29.92
6052;DHT22;3054;51.204;4.430;2022-08-16T13:50:19;33.71;29.76
6052;DHT22;3054;51.204;4.430;2022-08-16T13:52:46;33.71;29.74
6052;DHT22;3054;51.204;4.430;2022-08-16T13:55:14;33.73;29.73
6052;DHT22;3054;51.204;4.430;2022-08-16T13:57:41;33.85;29.51
6052;DHT22;3054;51.204;4.430;2022-08-16T14:00:09;33.89;29.52
6052;DHT22;3054;51.204;4.430;2022-08-16T14:02:36;33.81;29.45
6052;DHT22;3054;51.204;4.430;2022-08-16T14:05:04;33.67;29.48
6052;DHT22;3054;51.204;4.430;2022-08-16T14:07:34;33.62;29.51
6052;DHT22;3054;51.204;4.430;2022-08-16T14:10:02;33.62;29.53
6052;DHT22;3054;51.204;4.430;2022-08-16T14:12:31;33.60;29.55
6052;DHT22;3054;51.204;4.430;2022-08-16T14:14:58;33.53;29.57
6052;DHT22;3054;51.204;4.430;2022-08-16T14:17:27;33.51;29.55
6052;DHT22;3054;51.204;4.430;2022-08-16T14:19:54;33.48;29.64
6052;DHT22;3054;51.204;4.430;2022-08-16T14:22:23;33.47;29.83
6052;DHT22;3054;51.204;4.430;2022-08-16T14:24:51;33.50;29.87
6052;DHT22;3054;51.204;4.430;2022-08-16T14:27:21;33.43;30.03
6052;DHT22;3054;51.204;4.430;2022-08-16T14:29:51;33.23;30.13
6052;DHT22;3054;51.204;4.430;2022-08-16T14:32:19;33.18;30.28
6052;DHT22;3054;51.204;4.430;2022-08-16T14:34:46;33.23;30.34
6052;DHT22;3054;51.204;4.430;2022-08-16T14:37:13;33.34;30.34
6052;DHT22;3054;51.204;4.430;2022-08-16T14:39:40;33.36;30.25
6052;DHT22;3054;51.204;4.430;2022-08-16T14:42:09;33.31;30.09
6052;DHT22;3054;51.204;4.430;2022-08-16T14:44:36;33.09;30.24
6052;DHT22;3054;51.204;4.430;2022-08-16T14:47:05;33.07;30.25
6052;DHT22;3054;51.204;4.430;2022-08-16T14:49:33;33.13;30.13
6052;DHT22;3054;51.204;4.430;2022-08-16T14:52:01;33.16;30.13
6052;DHT22;3054;51.204;4.430;2022-08-16T14:54:28;33.05;30.09
6052;DHT22;3054;51.204;4.430;2022-08-16T14:56:55;33.05;29.97
6052;DHT22;3054;51.204;4.430;2022-08-16T14:59:22;33.05;29.90
6052;DHT22;3054;51.204;4.430;2022-08-16T15:01:49;33.11;29.91
6052;DHT22;3054;51.204;4.430;2022-08-16T15:04:18;33.22;29.89
6052;DHT22;3054;51.204;4.430;2022-08-16T15:06:45;33.22;29.93
6052;DHT22;3054;51.204;4.430;2022-08-16T15:09:12;33.20;30.12
6052;DHT22;3054;51.204;4.430;2022-08-16T15:11:39;33.20;30.25
6052;DHT22;3054;51.204;4.430;2022-08-16T15:14:07;33.20;30.37
6052;DHT22;3054;51.204;4.430;2022-08-16T15:16:34;33.16;30.38
6052;DHT22;3054;51.204;4.430;2022-08-16T15:19:01;33.05;30.46
6052;DHT22;3054;51.204;4.430;2022-08-16T15:21:29;32.93;30.53
6052;DHT22;3054;51.204;4.430;2022-08-16T15:23:57;32.77;30.74
6052;DHT22;3054;51.204;4.430;2022-08-16T15:26:25;32.69;30.79
6052;DHT22;3054;51.204;4.430;2022-08-16T15:28:52;32.64;30.99
6052;DHT22;3054;51.204;4.430;2022-08-16T15:31:19;32.66;31.09
6052;DHT22;3054;51.204;4.430;2022-08-16T15:33:51;32.62;31.17
6052;DHT22;3054;51.204;4.430;2022-08-16T15:36:19;32.62;31.26
6052;DHT22;3054;51.204;4.430;2022-08-16T15:38:50;32.60;31.40
6052;DHT22;3054;51.204;4.430;2022-08-16T15:41:54;32.66;31.36
6052;DHT22;3054;51.204;4.430;2022-08-16T15:44:23;32.63;31.47
6052;DHT22;3054;51.204;4.430;2022-08-16T15:46:51;32.64;31.57
6052;DHT22;3054;51.204;4.430;2022-08-16T15:49:20;32.61;31.64
6052;DHT22;3054;51.204;4.430;2022-08-16T15:51:47;32.63;31.62
6052;DHT22;3054;51.204;4.430;2022-08-16T15:54:15;32.55;31.78
6052;DHT22;3054;51.204;4.430;2022-08-16T15:56:42;32.48;31.94
6052;DHT22;3054;51.204;4.430;2022-08-16T15:59:09;32.48;31.96
6052;DHT22;3054;51.204;4.430;2022-08-16T16:01:36;32.46;32.02
6052;DHT22;3054;51.204;4.430;2022-08-16T16:04:03;32.43;32.12
6052;DHT22;3054;51.204;4.430;2022-08-16T16:06:30;32.43;32.12